sensor_id;sensor_type;location;lat;lon;timestamp;pressure;altitude;pressure_sealevel;temperature;humidity
13709;BME280;54933;51.908;7.730;2023-07-29T00:02:07;100094.41;;;24.59;77.00
13709;BME280;54933;51.908;7.730;2023-07-29T00:04:32;100099.84;;;24.59;77.13
13709;BME280;54933;51.908;7.730;2023-07-29T00:06:57;100099.84;;;24.59;77.30
13709;BME280;54933;51.908;7.730;2023-07-29T00:09:22;100099.06;;;24.58;77.13
13709;BME280;54933;51.908;7.730;2023-07-29T00:11:48;100097.13;;;24.59;77.17
13709;BME280;54933;51.908;7.730;2023-07-29T00:14:13;100084.63;;;24.58;77.15
13709;BME280;54933;51.908;7.730;2023-07-29T00:16:38;100088.19;;;24.58;77.20
13709;BME280;54933;51.908;7.730;2023-07-29T00:19:03;100083.53;;;24.59;77.25
13709;BME280;54933;51.908;7.730;2023-07-29T00:21:29;100080.03;;;24.58;77.60
13709;BME280;54933;51.908;7.730;2023-07-29T00:23:54;100078.13;;;24.59;77.05
13709;BME280;54933;51.908;7.730;2023-07-29T00:26:22;100076.47;;;24.58;77.23
13709;BME280;54933;51.908;7.730;2023-07-29T00:28:48;100081.09;;;24.57;77.19
13709;BME280;54933;51.908;7.730;2023-07-29T00:31:13;100073.78;;;24.58;77.11
13709;BME280;54933;51.908;7.730;2023-07-29T00:33:38;100070.22;;;24.57;76.92
13709;BME280;54933;51.908;7.730;2023-07-29T00:36:04;100072.16;;;24.57;77.05
13709;BME280;54933;51.908;7.730;2023-07-29T00:38:29;100066.72;;;24.57;77.07
13709;BME280;54933;51.908;7.730;2023-07-29T00:40:57;100056.91;;;24.56;77.00
13709;BME280;54933;51.908;7.730;2023-07-29T00:43:22;100066.72;;;24.57;77.16
13709;BME280;54933;51.908;7.730;2023-07-29T00:45:47;100080.28;;;24.57;77.04
13709;BME280;54933;51.908;7.730;2023-07-29T00:48:13;100067.75;;;24.56;76.97
13709;BME280;54933;51.908;7.730;2023-07-29T00:50:38;100061.53;;;24.55;76.97
13709;BME280;54933;51.908;7.730;2023-07-29T00:53:04;100056.09;;;24.55;77.20
13709;BME280;54933;51.908;7.730;2023-07-29T00:55:30;100062.34;;;24.56;77.09
13709;BME280;54933;51.908;7.730;2023-07-29T00:57:55;100067.75;;;24.56;77.38
13709;BME280;54933;51.908;7.730;2023-07-29T01:00:21;100068.59;;;24.56;77.05
13709;BME280;54933;51.908;7.730;2023-07-29T01:02:47;100068.84;;;24.55;76.81
13709;BME280;54933;51.908;7.730;2023-07-29T01:05:13;100075.91;;;24.56;76.97
13709;BME280;54933;51.908;7.730;2023-07-29T01:10:18;100075.91;;;24.56;77.00
13709;BME280;54933;51.908;7.730;2023-07-29T01:12:54;100076.75;;;24.56;77.06
13709;BME280;54933;51.908;7.730;2023-07-29T01:15:36;100073.19;;;24.56;77.06
13709;BME280;54933;51.908;7.730;2023-07-29T01:18:08;100069.44;;;24.57;77.07
13709;BME280;54933;51.908;7.730;2023-07-29T01:20:38;100074.84;;;24.57;77.08
13709;BME280;54933;51.908;7.730;2023-07-29T01:23:04;100064.00;;;24.57;77.16
13709;BME280;54933;51.908;7.730;2023-07-29T01:25:29;100069.44;;;24.57;77.12
13709;BME280;54933;51.908;7.730;2023-07-29T01:27:55;100062.91;;;24.58;77.05
13709;BME280;54933;51.908;7.730;2023-07-29T01:30:22;100057.47;;;24.58;77.21
13709;BME280;54933;51.908;7.730;2023-07-29T01:32:54;100058.56;;;24.57;77.16
13709;BME280;54933;51.908;7.730;2023-07-29T01:35:33;100057.72;;;24.56;77.19
13709;BME280;54933;51.908;7.730;2023-07-29T01:38:18;100058.56;;;24.57;77.08
13709;BME280;54933;51.908;7.730;2023-07-29T01:40:48;100048.50;;;24.57;76.95
13709;BME280;54933;51.908;7.730;2023-07-29T01:43:14;100032.19;;;24.57;77.08
13709;BME280;54933;51.908;7.730;2023-07-29T01:45:39;100033.03;;;24.58;77.17
13709;BME280;54933;51.908;7.730;2023-07-29T01:48:05;100037.63;;;24.57;77.25
13709;BME280;54933;51.908;7.730;2023-07-29T01:50:30;100033.03;;;24.58;77.26
13709;BME280;54933;51.908;7.730;2023-07-29T01:52:57;100028.41;;;24.58;77.15
13709;BME280;54933;51.908;7.730;2023-07-29T01:55:22;100022.16;;;24.58;77.09
13709;BME280;54933;51.908;7.730;2023-07-29T01:57:48;100022.16;;;24.58;77.25
13709;BME280;54933;51.908;7.730;2023-07-29T02:00:13;100024.88;;;24.58;77.24
13709;BME280;54933;51.908;7.730;2023-07-29T02:02:38;100015.88;;;24.57;77.19
13709;BME280;54933;51.908;7.730;2023-07-29T02:05:04;100016.72;;;24.58;77.13
13709;BME280;54933;51.908;7.730;2023-07-29T02:07:29;100019.44;;;24.58;77.23
13709;BME280;54933;51.908;7.730;2023-07-29T02:09:54;100018.59;;;24.57;77.26
13709;BME280;54933;51.908;7.730;2023-07-29T02:12:19;100016.72;;;24.58;77.29
13709;BME280;54933;51.908;7.730;2023-07-29T02:14:45;100011.28;;;24.58;77.14
13709;BME280;54933;51.908;7.730;2023-07-29T02:17:10;100011.28;;;24.58;77.32
13709;BME280;54933;51.908;7.730;2023-07-29T02:19:35;100005.28;;;24.56;77.09
13709;BME280;54933;51.908;7.730;2023-07-29T02:22:00;100008.84;;;24.56;77.25
13709;BME280;54933;51.908;7.730;2023-07-29T02:24:26;100005.84;;;24.58;77.16
13709;BME280;54933;51.908;7.730;2023-07-29T02:26:51;100002.56;;;24.56;77.10
13709;BME280;54933;51.908;7.730;2023-07-29T02:29:16;100003.41;;;24.56;77.06
13709;BME280;54933;51.908;7.730;2023-07-29T02:31:41;99996.34;;;24.55;77.18
13709;BME280;54933;51.908;7.730;2023-07-29T02:34:09;100000.94;;;24.55;77.28
13709;BME280;54933;51.908;7.730;2023-07-29T02:36:34;100008.84;;;24.56;77.18
13709;BME280;54933;51.908;7.730;2023-07-29T02:38:59;99999.84;;;24.56;77.17
13709;BME280;54933;51.908;7.730;2023-07-29T02:41:25;99997.13;;;24.56;77.26
13709;BME280;54933;51.908;7.730;2023-07-29T02:43:50;99988.19;;;24.55;77.10
13709;BME280;54933;51.908;7.730;2023-07-29T02:46:16;99995.50;;;24.55;77.05
13709;BME280;54933;51.908;7.730;2023-07-29T02:48:42;99992.78;;;24.55;76.96
13709;BME280;54933;51.908;7.730;2023-07-29T02:51:07;99993.63;;;24.55;77.06
13709;BME280;54933;51.908;7.730;2023-07-29T02:53:33;99995.50;;;24.55;77.03
13709;BME280;54933;51.908;7.730;2023-07-29T02:55:58;99995.50;;;24.55;77.02
13709;BME280;54933;51.908;7.730;2023-07-29T02:58:23;99991.16;;;24.54;77.17
13709;BME280;54933;51.908;7.730;2023-07-29T03:00:48;99995.50;;;24.55;76.99
13709;BME280;54933;51.908;7.730;2023-07-29T03:03:14;99984.66;;;24.55;76.80
13709;BME280;54933;51.908;7.730;2023-07-29T03:05:39;99987.63;;;24.53;77.06
13709;BME280;54933;51.908;7.730;2023-07-29T03:08:05;99990.91;;;24.55;77.07
13709;BME280;54933;51.908;7.730;2023-07-29T03:10:30;99991.72;;;24.56;76.87
13709;BME280;54933;51.908;7.730;2023-07-29T03:12:55;99976.22;;;24.56;77.00
13709;BME280;54933;51.908;7.730;2023-07-29T03:15:24;99991.72;;;24.56;77.04
13709;BME280;54933;51.908;7.730;2023-07-29T03:17:50;99993.38;;;24.57;77.30
13709;BME280;54933;51.908;7.730;2023-07-29T03:20:16;99989.56;;;24.58;77.21
13709;BME280;54933;51.908;7.730;2023-07-29T03:22:43;99993.38;;;24.57;77.04
13709;BME280;54933;51.908;7.730;2023-07-29T03:25:08;99996.09;;;24.57;77.28
13709;BME280;54933;51.908;7.730;2023-07-29T03:27:33;100000.41;;;24.58;77.37
13709;BME280;54933;51.908;7.730;2023-07-29T03:30:01;99994.16;;;24.57;77.34
13709;BME280;54933;51.908;7.730;2023-07-29T03:32:26;99997.72;;;24.58;77.15
13709;BME280;54933;51.908;7.730;2023-07-29T03:34:52;100012.13;;;24.58;77.16
13709;BME280;54933;51.908;7.730;2023-07-29T03:37:17;100003.13;;;24.58;77.26
13709;BME280;54933;51.908;7.730;2023-07-29T03:39:42;100004.22;;;24.57;77.28
13709;BME280;54933;51.908;7.730;2023-07-29T03:42:07;100011.28;;;24.58;77.44
13709;BME280;54933;51.908;7.730;2023-07-29T03:44:33;100005.03;;;24.57;77.38
13709;BME280;54933;51.908;7.730;2023-07-29T03:46:58;99998.78;;;24.57;77.27
13709;BME280;54933;51.908;7.730;2023-07-29T03:49:24;100002.03;;;24.59;77.36
13709;BME280;54933;51.908;7.730;2023-07-29T03:51:49;100002.31;;;24.57;77.37
13709;BME280;54933;51.908;7.730;2023-07-29T03:54:14;99999.59;;;24.57;77.26
13709;BME280;54933;51.908;7.730;2023-07-29T03:56:39;99995.00;;;24.58;77.35
13709;BME280;54933;51.908;7.730;2023-07-29T03:59:05;99995.00;;;24.58;77.35
13709;BME280;54933;51.908;7.730;2023-07-29T04:01:31;99990.38;;;24.58;77.33
13709;BME280;54933;51.908;7.730;2023-07-29T04:03:58;99987.94;;;24.57;77.24
13709;BME280;54933;51.908;7.730;2023-07-29T04:06:24;99989.56;;;24.58;77.29
13709;BME280;54933;51.908;7.730;2023-07-29T04:08:49;99983.28;;;24.57;77.26
13709;BME280;54933;51.908;7.730;2023-07-29T04:11:15;99985.22;;;24.57;77.29
13709;BME280;54933;51.908;7.730;2023-07-29T04:13:40;99987.94;;;24.57;77.60
13709;BME280;54933;51.908;7.730;2023-07-29T04:16:06;99967.00;;;24.57;77.21
13709;BME280;54933;51.908;7.730;2023-07-29T04:18:31;99966.19;;;24.57;77.15
13709;BME280;54933;51.908;7.730;2023-07-29T04:20:57;99968.91;;;24.57;77.04
13709;BME280;54933;51.908;7.730;2023-07-29T04:23:22;99977.06;;;24.57;77.30
13709;BME280;54933;51.908;7.730;2023-07-29T04:25:47;99982.50;;;24.57;77.38
13709;BME280;54933;51.908;7.730;2023-07-29T04:28:12;99980.84;;;24.56;77.30
13709;BME280;54933;51.908;7.730;2023-07-29T04:30:38;99980.84;;;24.56;77.28
13709;BME280;54933;51.908;7.730;2023-07-29T04:33:03;99979.22;;;24.55;77.08
13709;BME280;54933;51.908;7.730;2023-07-29T04:35:28;99982.75;;;24.55;77.13
13709;BME280;54933;51.908;7.730;2023-07-29T04:37:54;99991.72;;;24.56;77.20
13709;BME280;54933;51.908;7.730;2023-07-29T04:40:19;99983.56;;;24.56;77.15
13709;BME280;54933;51.908;7.730;2023-07-29T04:42:44;99980.03;;;24.55;77.34
13709;BME280;54933;51.908;7.730;2023-07-29T04:45:10;99972.94;;;24.54;76.97
13709;BME280;54933;51.908;7.730;2023-07-29T04:47:35;99967.25;;;24.56;77.28
13709;BME280;54933;51.908;7.730;2023-07-29T04:50:00;99960.19;;;24.55;77.09
13709;BME280;54933;51.908;7.730;2023-07-29T04:52:25;99968.34;;;24.55;77.21
13709;BME280;54933;51.908;7.730;2023-07-29T04:54:51;99968.09;;;24.56;77.32
13709;BME280;54933;51.908;7.730;2023-07-29T04:57:16;99969.97;;;24.56;77.18
13709;BME280;54933;51.908;7.730;2023-07-29T04:59:41;99961.28;;;24.54;77.01
13709;BME280;54933;51.908;7.730;2023-07-29T05:02:07;99951.22;;;24.54;77.19
13709;BME280;54933;51.908;7.730;2023-07-29T05:04:32;99943.91;;;24.55;77.15
13709;BME280;54933;51.908;7.730;2023-07-29T05:06:57;99942.00;;;24.55;77.13
13709;BME280;54933;51.908;7.730;2023-07-29T05:09:23;99942.81;;;24.56;77.16
13709;BME280;54933;51.908;7.730;2023-07-29T05:11:48;99939.03;;;24.57;77.31
13709;BME280;54933;51.908;7.730;2023-07-29T05:14:14;99944.47;;;24.57;77.25
13709;BME280;54933;51.908;7.730;2023-07-29T05:16:40;99945.25;;;24.57;77.13
13709;BME280;54933;51.908;7.730;2023-07-29T05:19:05;99954.50;;;24.56;77.44
13709;BME280;54933;51.908;7.730;2023-07-29T05:21:31;99955.34;;;24.57;77.22
13709;BME280;54933;51.908;7.730;2023-07-29T05:23:56;99968.09;;;24.56;77.10
13709;BME280;54933;51.908;7.730;2023-07-29T05:26:22;99959.69;;;24.58;77.49
13709;BME280;54933;51.908;7.730;2023-07-29T05:28:47;99974.34;;;24.57;77.18
13709;BME280;54933;51.908;7.730;2023-07-29T05:31:13;99984.13;;;24.58;77.43
13709;BME280;54933;51.908;7.730;2023-07-29T05:33:38;99990.66;;;24.57;77.26
13709;BME280;54933;51.908;7.730;2023-07-29T05:36:04;99996.09;;;24.57;77.44
13709;BME280;54933;51.908;7.730;2023-07-29T05:38:30;100002.31;;;24.57;77.56
13709;BME280;54933;51.908;7.730;2023-07-29T05:40:55;99997.72;;;24.58;77.58
13709;BME280;54933;51.908;7.730;2023-07-29T05:43:20;99997.97;;;24.56;77.57
13709;BME280;54933;51.908;7.730;2023-07-29T05:45:46;100003.13;;;24.58;77.42
13709;BME280;54933;51.908;7.730;2023-07-29T05:48:11;99998.78;;;24.57;77.55
13709;BME280;54933;51.908;7.730;2023-07-29T05:50:36;99990.38;;;24.58;77.50
13709;BME280;54933;51.908;7.730;2023-07-29T05:53:01;99979.78;;;24.57;77.37
13709;BME280;54933;51.908;7.730;2023-07-29T05:55:27;99967.00;;;24.57;77.45
13709;BME280;54933;51.908;7.730;2023-07-29T05:57:52;99955.34;;;24.57;77.51
13709;BME280;54933;51.908;7.730;2023-07-29T06:00:17;99955.34;;;24.57;77.40
13709;BME280;54933;51.908;7.730;2023-07-29T06:02:42;99961.56;;;24.57;77.44
13709;BME280;54933;51.908;7.730;2023-07-29T06:05:08;99959.69;;;24.58;77.28
13709;BME280;54933;51.908;7.730;2023-07-29T06:07:33;99967.00;;;24.57;77.43
13709;BME280;54933;51.908;7.730;2023-07-29T06:09:59;99967.81;;;24.58;77.33
13709;BME280;54933;51.908;7.730;2023-07-29T06:12:25;99972.44;;;24.57;77.29
13709;BME280;54933;51.908;7.730;2023-07-29T06:14:50;99976.22;;;24.56;77.35
13709;BME280;54933;51.908;7.730;2023-07-29T06:17:16;99994.16;;;24.57;77.50
13709;BME280;54933;51.908;7.730;2023-07-29T06:19:41;100004.22;;;24.57;77.37
13709;BME280;54933;51.908;7.730;2023-07-29T06:22:07;100002.56;;;24.56;77.44
13709;BME280;54933;51.908;7.730;2023-07-29T06:24:32;100009.66;;;24.57;77.51
13709;BME280;54933;51.908;7.730;2023-07-29T06:26:58;100013.44;;;24.56;77.46
13709;BME280;54933;51.908;7.730;2023-07-29T06:29:23;100018.88;;;24.56;77.54
13709;BME280;54933;51.908;7.730;2023-07-29T06:31:49;100018.88;;;24.56;77.30
13709;BME280;54933;51.908;7.730;2023-07-29T06:34:16;100027.03;;;24.56;77.20
13709;BME280;54933;51.908;7.730;2023-07-29T06:36:41;100035.16;;;24.56;77.36
13709;BME280;54933;51.908;7.730;2023-07-29T06:39:06;100029.72;;;24.56;77.38
13709;BME280;54933;51.908;7.730;2023-07-29T06:41:32;100031.91;;;24.54;77.55
13709;BME280;54933;51.908;7.730;2023-07-29T06:43:57;100034.84;;;24.52;77.54
13709;BME280;54933;51.908;7.730;2023-07-29T06:46:22;100033.22;;;24.51;77.53
13709;BME280;54933;51.908;7.730;2023-07-29T06:48:48;100043.28;;;24.51;77.48
13709;BME280;54933;51.908;7.730;2023-07-29T06:51:13;100038.66;;;24.51;77.59
13709;BME280;54933;51.908;7.730;2023-07-29T06:53:38;100050.34;;;24.52;77.52
13709;BME280;54933;51.908;7.730;2023-07-29T06:56:03;100045.72;;;24.52;77.45
13709;BME280;54933;51.908;7.730;2023-07-29T06:58:29;100046.56;;;24.53;77.17
13709;BME280;54933;51.908;7.730;2023-07-29T07:00:55;100052.81;;;24.53;77.55
13709;BME280;54933;51.908;7.730;2023-07-29T07:03:20;100052.81;;;24.53;77.84
13709;BME280;54933;51.908;7.730;2023-07-29T07:05:45;100067.22;;;24.54;77.73
13709;BME280;54933;51.908;7.730;2023-07-29T07:08:11;100073.72;;;24.53;77.70
13709;BME280;54933;51.908;7.730;2023-07-29T07:10:36;100077.00;;;24.55;77.85
13709;BME280;54933;51.908;7.730;2023-07-29T07:13:01;100078.09;;;24.54;77.93
13709;BME280;54933;51.908;7.730;2023-07-29T07:15:26;100083.53;;;24.54;77.70
13709;BME280;54933;51.908;7.730;2023-07-29T07:17:52;100082.69;;;24.53;77.87
13709;BME280;54933;51.908;7.730;2023-07-29T07:20:17;100080.81;;;24.54;77.73
13709;BME280;54933;51.908;7.730;2023-07-29T07:22:42;100080.81;;;24.54;77.85
13709;BME280;54933;51.908;7.730;2023-07-29T07:25:08;100081.59;;;24.54;77.81
13709;BME280;54933;51.908;7.730;2023-07-29T07:27:33;100077.00;;;24.55;77.72
13709;BME280;54933;51.908;7.730;2023-07-29T07:29:58;100075.38;;;24.54;78.04
13709;BME280;54933;51.908;7.730;2023-07-29T07:32:24;100084.06;;;24.56;77.81
13709;BME280;54933;51.908;7.730;2023-07-29T07:34:49;100082.44;;;24.55;78.01
13709;BME280;54933;51.908;7.730;2023-07-29T07:37:14;100088.69;;;24.55;77.77
13709;BME280;54933;51.908;7.730;2023-07-29T07:39:40;100082.44;;;24.55;77.89
13709;BME280;54933;51.908;7.730;2023-07-29T07:42:05;100091.69;;;24.54;77.91
13709;BME280;54933;51.908;7.730;2023-07-29T07:44:30;100086.25;;;24.54;77.91
13709;BME280;54933;51.908;7.730;2023-07-29T07:46:56;100083.25;;;24.55;77.97
13709;BME280;54933;51.908;7.730;2023-07-29T07:49:22;100079.72;;;24.55;77.91
13709;BME280;54933;51.908;7.730;2023-07-29T07:51:47;100074.28;;;24.55;77.98
13709;BME280;54933;51.908;7.730;2023-07-29T07:54:12;100075.38;;;24.54;77.92
13709;BME280;54933;51.908;7.730;2023-07-29T07:56:38;100084.31;;;24.54;77.60
13709;BME280;54933;51.908;7.730;2023-07-29T07:59:03;100087.88;;;24.55;77.98
13709;BME280;54933;51.908;7.730;2023-07-29T08:01:34;100081.59;;;24.54;77.96
13709;BME280;54933;51.908;7.730;2023-07-29T08:04:00;100078.09;;;24.54;77.95
13709;BME280;54933;51.908;7.730;2023-07-29T08:06:25;100079.97;;;24.53;77.74
13709;BME280;54933;51.908;7.730;2023-07-29T08:08:51;100075.38;;;24.54;77.75
13709;BME280;54933;51.908;7.730;2023-07-29T08:11:16;100086.78;;;24.56;77.69
13709;BME280;54933;51.908;7.730;2023-07-29T08:13:41;100082.44;;;24.55;77.80
13709;BME280;54933;51.908;7.730;2023-07-29T08:16:06;100076.19;;;24.54;77.86
13709;BME280;54933;51.908;7.730;2023-07-29T08:18:32;100077.00;;;24.55;77.83
13709;BME280;54933;51.908;7.730;2023-07-29T08:20:58;100073.72;;;24.53;77.86
13709;BME280;54933;51.908;7.730;2023-07-29T08:23:25;100066.13;;;24.55;77.80
13709;BME280;54933;51.908;7.730;2023-07-29T08:25:52;100069.13;;;24.53;77.32
13709;BME280;54933;51.908;7.730;2023-07-29T08:28:17;100067.22;;;24.54;78.45
13709;BME280;54933;51.908;7.730;2023-07-29T08:30:43;100066.13;;;24.55;77.85
13709;BME280;54933;51.908;7.730;2023-07-29T08:33:08;100068.28;;;24.53;77.91
13709;BME280;54933;51.908;7.730;2023-07-29T08:35:33;100070.75;;;24.54;78.00
13709;BME280;54933;51.908;7.730;2023-07-29T08:37:58;100064.50;;;24.54;77.93
13709;BME280;54933;51.908;7.730;2023-07-29T08:40:27;100075.38;;;24.54;77.92
13709;BME280;54933;51.908;7.730;2023-07-29T08:42:55;100064.50;;;24.54;77.79
13709;BME280;54933;51.908;7.730;2023-07-29T08:45:23;100063.69;;;24.53;77.83
13709;BME280;54933;51.908;7.730;2023-07-29T08:47:52;100060.97;;;24.53;77.87
13709;BME280;54933;51.908;7.730;2023-07-29T08:50:19;100053.66;;;24.54;78.01
13709;BME280;54933;51.908;7.730;2023-07-29T08:52:45;100052.56;;;24.55;78.20
13709;BME280;54933;51.908;7.730;2023-07-29T08:55:11;100055.28;;;24.55;78.31
13709;BME280;54933;51.908;7.730;2023-07-29T08:57:36;100062.34;;;24.56;77.95
13709;BME280;54933;51.908;7.730;2023-07-29T09:00:02;100064.00;;;24.57;77.83
13709;BME280;54933;51.908;7.730;2023-07-29T09:02:28;100060.44;;;24.56;78.01
13709;BME280;54933;51.908;7.730;2023-07-29T09:04:54;100074.84;;;24.57;78.21
13709;BME280;54933;51.908;7.730;2023-07-29T09:07:19;100058.56;;;24.57;78.16
13709;BME280;54933;51.908;7.730;2023-07-29T09:09:45;100066.72;;;24.57;78.09
13709;BME280;54933;51.908;7.730;2023-07-29T09:12:11;100065.63;;;24.58;78.13
13709;BME280;54933;51.908;7.730;2023-07-29T09:14:37;100073.78;;;24.58;78.14
13709;BME280;54933;51.908;7.730;2023-07-29T09:17:02;100081.09;;;24.57;78.13
13709;BME280;54933;51.908;7.730;2023-07-29T09:19:27;100076.47;;;24.58;78.24
13709;BME280;54933;51.908;7.730;2023-07-29T09:21:52;100071.06;;;24.58;78.09
13709;BME280;54933;51.908;7.730;2023-07-29T09:24:18;100082.75;;;24.58;78.24
13709;BME280;54933;51.908;7.730;2023-07-29T09:26:50;100088.97;;;24.59;78.33
13709;BME280;54933;51.908;7.730;2023-07-29T09:29:16;100080.03;;;24.58;78.01
13709;BME280;54933;51.908;7.730;2023-07-29T09:31:46;100086.25;;;24.59;78.19
13709;BME280;54933;51.908;7.730;2023-07-29T09:34:15;100072.69;;;24.59;78.33
13709;BME280;54933;51.908;7.730;2023-07-29T09:36:40;100071.88;;;24.58;78.18
13709;BME280;54933;51.908;7.730;2023-07-29T09:39:11;100068.34;;;24.58;78.27
13709;BME280;54933;51.908;7.730;2023-07-29T09:41:36;100060.19;;;24.58;78.29
13709;BME280;54933;51.908;7.730;2023-07-29T09:44:04;100069.97;;;24.59;78.13
13709;BME280;54933;51.908;7.730;2023-07-29T09:46:35;100071.06;;;24.58;78.32
13709;BME280;54933;51.908;7.730;2023-07-29T09:49:03;100063.47;;;24.60;78.38
13709;BME280;54933;51.908;7.730;2023-07-29T09:51:28;100073.50;;;24.59;78.28
13709;BME280;54933;51.908;7.730;2023-07-29T09:53:54;100078.13;;;24.59;78.22
13709;BME280;54933;51.908;7.730;2023-07-29T09:56:24;100067.25;;;24.59;78.24
13709;BME280;54933;51.908;7.730;2023-07-29T09:58:50;100075.41;;;24.59;78.53
13709;BME280;54933;51.908;7.730;2023-07-29T10:01:16;100078.13;;;24.59;78.29
13709;BME280;54933;51.908;7.730;2023-07-29T10:03:44;100074.59;;;24.58;78.21
13709;BME280;54933;51.908;7.730;2023-07-29T10:06:10;100088.97;;;24.59;78.07
13709;BME280;54933;51.908;7.730;2023-07-29T10:08:36;100077.63;;;24.62;78.11
13709;BME280;54933;51.908;7.730;2023-07-29T10:11:05;100085.22;;;24.60;78.07
13709;BME280;54933;51.908;7.730;2023-07-29T10:13:31;100094.41;;;24.59;78.22
13709;BME280;54933;51.908;7.730;2023-07-29T10:15:57;100089.81;;;24.59;78.16
13709;BME280;54933;51.908;7.730;2023-07-29T10:18:23;100088.19;;;24.58;78.04
13709;BME280;54933;51.908;7.730;2023-07-29T10:20:51;100083.53;;;24.59;78.12
13709;BME280;54933;51.908;7.730;2023-07-29T10:23:18;100084.38;;;24.59;78.05
13709;BME280;54933;51.908;7.730;2023-07-29T10:25:47;100088.97;;;24.59;78.05
13709;BME280;54933;51.908;7.730;2023-07-29T10:28:12;100087.91;;;24.60;78.02
13709;BME280;54933;51.908;7.730;2023-07-29T10:30:41;100084.38;;;24.59;78.06
13709;BME280;54933;51.908;7.730;2023-07-29T10:33:07;100086.25;;;24.59;78.16
13709;BME280;54933;51.908;7.730;2023-07-29T10:35:33;100087.09;;;24.59;78.08
13709;BME280;54933;51.908;7.730;2023-07-29T10:37:59;100094.41;;;24.59;77.95
13709;BME280;54933;51.908;7.730;2023-07-29T10:40:25;100102.56;;;24.59;78.15
13709;BME280;54933;51.908;7.730;2023-07-29T10:43:09;100094.66;;;24.57;77.99
13709;BME280;54933;51.908;7.730;2023-07-29T10:45:39;100088.19;;;24.58;77.95
13709;BME280;54933;51.908;7.730;2023-07-29T10:50:31;100078.13;;;24.59;77.95
13709;BME280;54933;51.908;7.730;2023-07-29T10:52:57;100083.53;;;24.59;78.21
13709;BME280;54933;51.908;7.730;2023-07-29T10:55:27;100081.41;;;24.61;77.98
13709;BME280;54933;51.908;7.730;2023-07-29T10:58:12;100079.50;;;24.61;78.15
13709;BME280;54933;51.908;7.730;2023-07-29T11:00:38;100075.97;;;24.61;78.14
13709;BME280;54933;51.908;7.730;2023-07-29T11:03:06;100059.66;;;24.61;78.49
13709;BME280;54933;51.908;7.730;2023-07-29T11:05:52;100062.38;;;24.61;78.09
13709;BME280;54933;51.908;7.730;2023-07-29T11:08:29;100065.09;;;24.61;78.25
13709;BME280;54933;51.908;7.730;2023-07-29T11:11:06;100051.50;;;24.61;77.85
13709;BME280;54933;51.908;7.730;2023-07-29T11:13:36;100051.25;;;24.62;78.08
13709;BME280;54933;51.908;7.730;2023-07-29T11:16:02;100055.91;;;24.62;78.21
13709;BME280;54933;51.908;7.730;2023-07-29T11:18:30;100054.22;;;24.61;78.09
13709;BME280;54933;51.908;7.730;2023-07-29T11:20:57;100050.47;;;24.62;78.23
13709;BME280;54933;51.908;7.730;2023-07-29T11:23:36;100052.34;;;24.61;78.28
13709;BME280;54933;51.908;7.730;2023-07-29T11:26:03;100048.53;;;24.62;78.25
13709;BME280;54933;51.908;7.730;2023-07-29T11:28:29;100045.03;;;24.62;78.01
13709;BME280;54933;51.908;7.730;2023-07-29T11:30:55;100053.97;;;24.62;78.35
13709;BME280;54933;51.908;7.730;2023-07-29T11:33:23;100043.94;;;24.63;78.15
13709;BME280;54933;51.908;7.730;2023-07-29T11:35:49;100050.19;;;24.63;78.20
13709;BME280;54933;51.908;7.730;2023-07-29T11:38:16;100043.09;;;24.62;78.19
13709;BME280;54933;51.908;7.730;2023-07-29T11:40:42;100048.28;;;24.64;78.18
13709;BME280;54933;51.908;7.730;2023-07-29T11:43:07;100056.44;;;24.64;78.11
13709;BME280;54933;51.908;7.730;2023-07-29T11:45:33;100052.09;;;24.63;78.20
13709;BME280;54933;51.908;7.730;2023-07-29T11:47:58;100055.63;;;24.63;78.27
13709;BME280;54933;51.908;7.730;2023-07-29T11:50:24;100054.81;;;24.63;78.15
13709;BME280;54933;51.908;7.730;2023-07-29T11:52:49;100054.81;;;24.63;78.14
13709;BME280;54933;51.908;7.730;2023-07-29T11:55:15;100064.59;;;24.64;78.14
13709;BME280;54933;51.908;7.730;2023-07-29T11:57:42;100057.53;;;24.63;78.07
13709;BME280;54933;51.908;7.730;2023-07-29T12:00:10;100062.94;;;24.63;78.27
13709;BME280;54933;51.908;7.730;2023-07-29T12:02:38;100057.53;;;24.63;78.25
13709;BME280;54933;51.908;7.730;2023-07-29T12:05:05;100062.13;;;24.62;78.19
13709;BME280;54933;51.908;7.730;2023-07-29T12:07:31;100069.22;;;24.63;77.98
13709;BME280;54933;51.908;7.730;2023-07-29T12:09:57;100063.78;;;24.63;78.03
13709;BME280;54933;51.908;7.730;2023-07-29T12:12:22;100071.66;;;24.65;77.98
13709;BME280;54933;51.908;7.730;2023-07-29T12:14:48;100052.09;;;24.63;78.13
13709;BME280;54933;51.908;7.730;2023-07-29T12:17:14;100055.63;;;24.63;77.89
13709;BME280;54933;51.908;7.730;2023-07-29T12:19:41;100051.00;;;24.64;77.99
13709;BME280;54933;51.908;7.730;2023-07-29T12:22:08;100058.09;;;24.65;78.03
13709;BME280;54933;51.908;7.730;2023-07-29T12:24:37;100047.47;;;24.63;77.90
13709;BME280;54933;51.908;7.730;2023-07-29T12:27:03;100056.44;;;24.64;77.78
13709;BME280;54933;51.908;7.730;2023-07-29T12:29:28;100031.19;;;24.63;77.74
13709;BME280;54933;51.908;7.730;2023-07-29T12:31:59;100036.63;;;24.63;78.04
13709;BME280;54933;51.908;7.730;2023-07-29T12:34:26;100036.63;;;24.63;77.91
13709;BME280;54933;51.908;7.730;2023-07-29T12:36:52;100038.25;;;24.64;77.90
13709;BME280;54933;51.908;7.730;2023-07-29T12:39:31;100037.41;;;24.64;77.64
13709;BME280;54933;51.908;7.730;2023-07-29T12:41:58;100042.84;;;24.64;78.07
13709;BME280;54933;51.908;7.730;2023-07-29T12:44:25;100037.41;;;24.64;78.03
13709;BME280;54933;51.908;7.730;2023-07-29T12:46:51;100035.25;;;24.66;77.68
13709;BME280;54933;51.908;7.730;2023-07-29T12:49:17;100051.56;;;24.66;78.01
13709;BME280;54933;51.908;7.730;2023-07-29T12:51:42;100063.53;;;24.65;77.97
13709;BME280;54933;51.908;7.730;2023-07-29T12:54:08;100055.09;;;24.66;77.90